sensor_id;sensor_type;location;lat;lon;timestamp;P1;durP1;ratioP1;P2;durP2;ratioP2
36291;SDS011;22327;51.208;6.418;2022-10-31T00:01:23;13.80;;;8.73;;
36291;SDS011;22327;51.208;6.418;2022-10-31T00:03:50;10.88;;;7.85;;
36291;SDS011;22327;51.208;6.418;2022-10-31T00:06:16;14.60;;;7.72;;
36291;SDS011;22327;51.208;6.418;2022-10-31T00:08:51;15.20;;;8.60;;
36291;SDS011;22327;51.208;6.418;2022-10-31T00:11:19;12.95;;;7.72;;
36291;SDS011;22327;51.208;6.418;2022-10-31T00:13:44;16.77;;;8.70;;
36291;SDS011;22327;51.208;6.418;2022-10-31T00:16:14;12.40;;;7.28;;
36291;SDS011;22327;51.208;6.418;2022-10-31T00:18:43;14.75;;;8.52;;
36291;SDS011;22327;51.208;6.418;2022-10-31T00:21:12;15.65;;;7.13;;
36291;SDS011;22327;51.208;6.418;2022-10-31T00:23:37;13.35;;;7.55;;
36291;SDS011;22327;51.208;6.418;2022-10-31T00:26:03;12.77;;;7.90;;
36291;SDS011;22327;51.208;6.418;2022-10-31T00:28:30;17.35;;;8.30;;
36291;SDS011;22327;51.208;6.418;2022-10-31T00:31:00;14.80;;;7.10;;
36291;SDS011;22327;51.208;6.418;2022-10-31T00:33:26;15.93;;;7.70;;
36291;SDS011;22327;51.208;6.418;2022-10-31T00:35:52;16.58;;;8.88;;
36291;SDS011;22327;51.208;6.418;2022-10-31T00:38:18;15.05;;;8.50;;
36291;SDS011;22327;51.208;6.418;2022-10-31T00:40:43;17.95;;;8.98;;
36291;SDS011;22327;51.208;6.418;2022-10-31T00:43:09;16.05;;;8.38;;
36291;SDS011;22327;51.208;6.418;2022-10-31T00:45:34;13.38;;;8.25;;
36291;SDS011;22327;51.208;6.418;2022-10-31T00:48:00;15.98;;;8.00;;
36291;SDS011;22327;51.208;6.418;2022-10-31T00:50:25;14.45;;;8.30;;
36291;SDS011;22327;51.208;6.418;2022-10-31T00:52:51;15.15;;;8.40;;
36291;SDS011;22327;51.208;6.418;2022-10-31T00:55:16;14.55;;;8.18;;
36291;SDS011;22327;51.208;6.418;2022-10-31T00:57:42;14.90;;;8.88;;
36291;SDS011;22327;51.208;6.418;2022-10-31T01:00:08;12.00;;;8.63;;
36291;SDS011;22327;51.208;6.418;2022-10-31T01:02:34;13.35;;;9.63;;
36291;SDS011;22327;51.208;6.418;2022-10-31T01:04:59;15.48;;;9.40;;
36291;SDS011;22327;51.208;6.418;2022-10-31T01:07:25;14.75;;;9.40;;
36291;SDS011;22327;51.208;6.418;2022-10-31T01:09:50;16.88;;;10.43;;
36291;SDS011;22327;51.208;6.418;2022-10-31T01:12:16;17.05;;;9.23;;
36291;SDS011;22327;51.208;6.418;2022-10-31T01:14:45;18.10;;;9.57;;
36291;SDS011;22327;51.208;6.418;2022-10-31T01:17:11;16.35;;;9.77;;
36291;SDS011;22327;51.208;6.418;2022-10-31T01:19:37;19.45;;;10.13;;
36291;SDS011;22327;51.208;6.418;2022-10-31T01:22:03;16.73;;;10.27;;
36291;SDS011;22327;51.208;6.418;2022-10-31T01:24:29;20.38;;;11.20;;
36291;SDS011;22327;51.208;6.418;2022-10-31T01:26:54;14.48;;;10.38;;
36291;SDS011;22327;51.208;6.418;2022-10-31T01:29:20;19.30;;;11.35;;
36291;SDS011;22327;51.208;6.418;2022-10-31T01:31:45;19.83;;;11.75;;
36291;SDS011;22327;51.208;6.418;2022-10-31T01:34:14;16.10;;;11.00;;
36291;SDS011;22327;51.208;6.418;2022-10-31T01:36:41;17.40;;;9.73;;
36291;SDS011;22327;51.208;6.418;2022-10-31T01:39:10;16.73;;;10.68;;
36291;SDS011;22327;51.208;6.418;2022-10-31T01:41:39;21.25;;;11.65;;
36291;SDS011;22327;51.208;6.418;2022-10-31T01:46:40;19.88;;;12.07;;
36291;SDS011;22327;51.208;6.418;2022-10-31T01:49:42;19.05;;;11.05;;
36291;SDS011;22327;51.208;6.418;2022-10-31T01:55:12;20.02;;;12.35;;
36291;SDS011;22327;51.208;6.418;2022-10-31T01:57:42;22.00;;;11.88;;
36291;SDS011;22327;51.208;6.418;2022-10-31T02:00:12;20.65;;;12.63;;
36291;SDS011;22327;51.208;6.418;2022-10-31T02:02:38;23.27;;;12.43;;
36291;SDS011;22327;51.208;6.418;2022-10-31T02:05:06;21.00;;;12.10;;
36291;SDS011;22327;51.208;6.418;2022-10-31T02:10:31;19.77;;;11.60;;
36291;SDS011;22327;51.208;6.418;2022-10-31T02:12:57;22.30;;;13.05;;
36291;SDS011;22327;51.208;6.418;2022-10-31T02:15:24;19.92;;;12.18;;
36291;SDS011;22327;51.208;6.418;2022-10-31T02:17:50;20.63;;;11.95;;
36291;SDS011;22327;51.208;6.418;2022-10-31T02:20:20;22.95;;;12.30;;
36291;SDS011;22327;51.208;6.418;2022-10-31T02:26:19;20.50;;;12.40;;
36291;SDS011;22327;51.208;6.418;2022-10-31T02:31:41;22.67;;;12.10;;
36291;SDS011;22327;51.208;6.418;2022-10-31T02:34:22;19.70;;;12.00;;
36291;SDS011;22327;51.208;6.418;2022-10-31T02:37:09;20.50;;;11.63;;
36291;SDS011;22327;51.208;6.418;2022-10-31T02:42:39;20.08;;;11.52;;
36291;SDS011;22327;51.208;6.418;2022-10-31T02:45:25;21.67;;;11.02;;
36291;SDS011;22327;51.208;6.418;2022-10-31T02:47:58;17.38;;;10.88;;
36291;SDS011;22327;51.208;6.418;2022-10-31T02:50:30;22.25;;;11.95;;
36291;SDS011;22327;51.208;6.418;2022-10-31T02:52:58;20.10;;;11.50;;
36291;SDS011;22327;51.208;6.418;2022-10-31T02:57:55;23.42;;;14.13;;
36291;SDS011;22327;51.208;6.418;2022-10-31T03:00:24;23.42;;;13.93;;
36291;SDS011;22327;51.208;6.418;2022-10-31T03:02:53;23.10;;;13.98;;
36291;SDS011;22327;51.208;6.418;2022-10-31T03:10:57;24.05;;;13.55;;
36291;SDS011;22327;51.208;6.418;2022-10-31T03:19:17;23.30;;;13.02;;
36291;SDS011;22327;51.208;6.418;2022-10-31T03:21:52;27.27;;;15.40;;
36291;SDS011;22327;51.208;6.418;2022-10-31T03:24:24;27.60;;;15.13;;
36291;SDS011;22327;51.208;6.418;2022-10-31T03:26:54;27.48;;;14.88;;
36291;SDS011;22327;51.208;6.418;2022-10-31T03:29:23;24.70;;;13.38;;
36291;SDS011;22327;51.208;6.418;2022-10-31T03:31:57;24.85;;;13.43;;
36291;SDS011;22327;51.208;6.418;2022-10-31T03:34:26;31.00;;;14.50;;
36291;SDS011;22327;51.208;6.418;2022-10-31T03:36:53;23.38;;;14.15;;
36291;SDS011;22327;51.208;6.418;2022-10-31T03:39:24;31.50;;;16.13;;
36291;SDS011;22327;51.208;6.418;2022-10-31T03:41:55;28.10;;;15.23;;
36291;SDS011;22327;51.208;6.418;2022-10-31T03:44:28;30.25;;;14.38;;
36291;SDS011;22327;51.208;6.418;2022-10-31T03:46:55;24.10;;;13.23;;
36291;SDS011;22327;51.208;6.418;2022-10-31T03:49:21;27.40;;;13.45;;
36291;SDS011;22327;51.208;6.418;2022-10-31T03:54:24;23.75;;;12.88;;
36291;SDS011;22327;51.208;6.418;2022-10-31T03:59:45;28.77;;;14.88;;
36291;SDS011;22327;51.208;6.418;2022-10-31T04:02:16;22.85;;;13.40;;
36291;SDS011;22327;51.208;6.418;2022-10-31T04:04:45;28.40;;;12.98;;
36291;SDS011;22327;51.208;6.418;2022-10-31T04:07:13;26.52;;;14.48;;
36291;SDS011;22327;51.208;6.418;2022-10-31T04:09:41;27.02;;;14.45;;
36291;SDS011;22327;51.208;6.418;2022-10-31T04:12:09;31.80;;;14.82;;
36291;SDS011;22327;51.208;6.418;2022-10-31T04:14:40;31.25;;;16.13;;
36291;SDS011;22327;51.208;6.418;2022-10-31T04:17:09;29.02;;;15.88;;
36291;SDS011;22327;51.208;6.418;2022-10-31T04:19:37;23.70;;;14.52;;
36291;SDS011;22327;51.208;6.418;2022-10-31T04:22:03;23.98;;;13.65;;
36291;SDS011;22327;51.208;6.418;2022-10-31T04:24:29;33.05;;;16.85;;
36291;SDS011;22327;51.208;6.418;2022-10-31T04:26:54;36.90;;;18.83;;
36291;SDS011;22327;51.208;6.418;2022-10-31T04:29:20;32.80;;;17.48;;
36291;SDS011;22327;51.208;6.418;2022-10-31T04:31:45;30.17;;;15.88;;
36291;SDS011;22327;51.208;6.418;2022-10-31T04:34:11;25.65;;;14.05;;
36291;SDS011;22327;51.208;6.418;2022-10-31T04:36:36;26.23;;;14.27;;
36291;SDS011;22327;51.208;6.418;2022-10-31T04:39:02;27.08;;;14.57;;
36291;SDS011;22327;51.208;6.418;2022-10-31T04:41:27;27.38;;;14.73;;
36291;SDS011;22327;51.208;6.418;2022-10-31T04:43:53;30.08;;;15.35;;
36291;SDS011;22327;51.208;6.418;2022-10-31T04:46:18;34.55;;;15.73;;
36291;SDS011;22327;51.208;6.418;2022-10-31T04:48:44;28.30;;;15.50;;
36291;SDS011;22327;51.208;6.418;2022-10-31T04:51:09;33.75;;;15.93;;
36291;SDS011;22327;51.208;6.418;2022-10-31T04:53:35;24.80;;;14.07;;
36291;SDS011;22327;51.208;6.418;2022-10-31T04:56:00;23.05;;;14.27;;
36291;SDS011;22327;51.208;6.418;2022-10-31T04:58:26;26.88;;;14.55;;
36291;SDS011;22327;51.208;6.418;2022-10-31T05:00:53;24.55;;;14.02;;
36291;SDS011;22327;51.208;6.418;2022-10-31T05:03:19;29.77;;;14.65;;
36291;SDS011;22327;51.208;6.418;2022-10-31T05:05:45;24.45;;;13.90;;
36291;SDS011;22327;51.208;6.418;2022-10-31T05:08:11;28.30;;;15.02;;
36291;SDS011;22327;51.208;6.418;2022-10-31T05:10:36;23.58;;;13.65;;
36291;SDS011;22327;51.208;6.418;2022-10-31T05:13:02;27.80;;;14.95;;
36291;SDS011;22327;51.208;6.418;2022-10-31T05:15:28;24.77;;;13.65;;
36291;SDS011;22327;51.208;6.418;2022-10-31T05:17:55;22.48;;;13.00;;
36291;SDS011;22327;51.208;6.418;2022-10-31T05:20:23;23.25;;;12.88;;
36291;SDS011;22327;51.208;6.418;2022-10-31T05:22:51;24.73;;;13.35;;
36291;SDS011;22327;51.208;6.418;2022-10-31T05:25:18;23.73;;;13.60;;
36291;SDS011;22327;51.208;6.418;2022-10-31T05:27:46;26.17;;;14.50;;
36291;SDS011;22327;51.208;6.418;2022-10-31T05:30:14;23.33;;;12.98;;
36291;SDS011;22327;51.208;6.418;2022-10-31T05:32:42;23.85;;;14.23;;
36291;SDS011;22327;51.208;6.418;2022-10-31T05:35:10;26.65;;;14.90;;
36291;SDS011;22327;51.208;6.418;2022-10-31T05:37:37;28.45;;;14.40;;
36291;SDS011;22327;51.208;6.418;2022-10-31T05:40:03;26.90;;;14.98;;
36291;SDS011;22327;51.208;6.418;2022-10-31T05:42:30;31.08;;;16.67;;
36291;SDS011;22327;51.208;6.418;2022-10-31T05:44:56;29.10;;;15.75;;
36291;SDS011;22327;51.208;6.418;2022-10-31T05:47:21;30.13;;;15.32;;
36291;SDS011;22327;51.208;6.418;2022-10-31T05:49:47;30.85;;;16.33;;
36291;SDS011;22327;51.208;6.418;2022-10-31T05:52:12;33.38;;;18.13;;
36291;SDS011;22327;51.208;6.418;2022-10-31T05:54:38;31.65;;;17.73;;
36291;SDS011;22327;51.208;6.418;2022-10-31T05:57:04;36.75;;;18.60;;
36291;SDS011;22327;51.208;6.418;2022-10-31T05:59:29;40.47;;;17.65;;
36291;SDS011;22327;51.208;6.418;2022-10-31T06:01:55;31.20;;;15.85;;
36291;SDS011;22327;51.208;6.418;2022-10-31T06:04:20;36.15;;;17.80;;
36291;SDS011;22327;51.208;6.418;2022-10-31T06:06:46;34.38;;;18.38;;
36291;SDS011;22327;51.208;6.418;2022-10-31T06:09:11;35.50;;;17.20;;
36291;SDS011;22327;51.208;6.418;2022-10-31T06:11:37;35.63;;;17.45;;
36291;SDS011;22327;51.208;6.418;2022-10-31T06:14:03;43.42;;;18.35;;
36291;SDS011;22327;51.208;6.418;2022-10-31T06:16:29;43.90;;;19.75;;
36291;SDS011;22327;51.208;6.418;2022-10-31T06:18:54;43.15;;;20.38;;
36291;SDS011;22327;51.208;6.418;2022-10-31T06:21:20;49.25;;;21.23;;
36291;SDS011;22327;51.208;6.418;2022-10-31T06:23:45;42.15;;;18.08;;
36291;SDS011;22327;51.208;6.418;2022-10-31T06:26:11;40.05;;;18.98;;
36291;SDS011;22327;51.208;6.418;2022-10-31T06:28:36;49.33;;;20.98;;
36291;SDS011;22327;51.208;6.418;2022-10-31T06:31:02;52.38;;;21.88;;
36291;SDS011;22327;51.208;6.418;2022-10-31T06:33:27;52.45;;;22.38;;
36291;SDS011;22327;51.208;6.418;2022-10-31T06:35:53;50.85;;;23.23;;
36291;SDS011;22327;51.208;6.418;2022-10-31T06:38:18;51.78;;;22.77;;
36291;SDS011;22327;51.208;6.418;2022-10-31T06:40:44;52.08;;;21.73;;
36291;SDS011;22327;51.208;6.418;2022-10-31T06:43:09;48.42;;;22.67;;
36291;SDS011;22327;51.208;6.418;2022-10-31T06:45:36;46.83;;;22.17;;
36291;SDS011;22327;51.208;6.418;2022-10-31T06:48:02;50.45;;;21.45;;
36291;SDS011;22327;51.208;6.418;2022-10-31T06:50:28;50.90;;;21.13;;
36291;SDS011;22327;51.208;6.418;2022-10-31T06:52:54;47.05;;;21.00;;
36291;SDS011;22327;51.208;6.418;2022-10-31T06:55:21;48.67;;;21.05;;
36291;SDS011;22327;51.208;6.418;2022-10-31T06:57:58;41.33;;;20.20;;
36291;SDS011;22327;51.208;6.418;2022-10-31T07:00:25;38.78;;;19.40;;
36291;SDS011;22327;51.208;6.418;2022-10-31T07:02:59;42.63;;;20.95;;
36291;SDS011;22327;51.208;6.418;2022-10-31T07:05:27;43.92;;;20.90;;
36291;SDS011;22327;51.208;6.418;2022-10-31T07:07:54;43.10;;;21.13;;
36291;SDS011;22327;51.208;6.418;2022-10-31T07:10:20;50.45;;;20.77;;
36291;SDS011;22327;51.208;6.418;2022-10-31T07:12:46;42.17;;;19.92;;
36291;SDS011;22327;51.208;6.418;2022-10-31T07:15:12;46.35;;;20.38;;
36291;SDS011;22327;51.208;6.418;2022-10-31T07:17:37;37.72;;;20.02;;
36291;SDS011;22327;51.208;6.418;2022-10-31T07:20:03;40.78;;;19.60;;
36291;SDS011;22327;51.208;6.418;2022-10-31T07:22:33;34.53;;;18.15;;
36291;SDS011;22327;51.208;6.418;2022-10-31T07:24:59;32.85;;;17.83;;
36291;SDS011;22327;51.208;6.418;2022-10-31T07:27:25;36.28;;;18.15;;
36291;SDS011;22327;51.208;6.418;2022-10-31T07:29:50;36.53;;;17.98;;
36291;SDS011;22327;51.208;6.418;2022-10-31T07:32:16;29.88;;;15.23;;
36291;SDS011;22327;51.208;6.418;2022-10-31T07:34:41;30.40;;;15.50;;
36291;SDS011;22327;51.208;6.418;2022-10-31T07:37:07;21.80;;;13.80;;
36291;SDS011;22327;51.208;6.418;2022-10-31T07:39:32;25.75;;;14.25;;
36291;SDS011;22327;51.208;6.418;2022-10-31T07:41:58;23.73;;;13.38;;
36291;SDS011;22327;51.208;6.418;2022-10-31T07:44:24;21.20;;;12.50;;
36291;SDS011;22327;51.208;6.418;2022-10-31T07:46:49;23.90;;;12.07;;
36291;SDS011;22327;51.208;6.418;2022-10-31T07:49:15;21.23;;;11.82;;
36291;SDS011;22327;51.208;6.418;2022-10-31T07:51:40;18.15;;;9.80;;
36291;SDS011;22327;51.208;6.418;2022-10-31T07:54:06;12.45;;;9.40;;
36291;SDS011;22327;51.208;6.418;2022-10-31T07:56:31;18.67;;;10.45;;
36291;SDS011;22327;51.208;6.418;2022-10-31T07:58:57;17.98;;;10.70;;
36291;SDS011;22327;51.208;6.418;2022-10-31T08:01:22;19.38;;;9.48;;
36291;SDS011;22327;51.208;6.418;2022-10-31T08:03:48;13.18;;;8.80;;
36291;SDS011;22327;51.208;6.418;2022-10-31T08:06:13;16.02;;;9.45;;
36291;SDS011;22327;51.208;6.418;2022-10-31T08:08:39;16.08;;;8.60;;
36291;SDS011;22327;51.208;6.418;2022-10-31T08:11:04;12.80;;;8.25;;
36291;SDS011;22327;51.208;6.418;2022-10-31T08:13:30;14.43;;;8.48;;
36291;SDS011;22327;51.208;6.418;2022-10-31T08:15:57;14.95;;;8.65;;
36291;SDS011;22327;51.208;6.418;2022-10-31T08:18:28;12.40;;;8.13;;
36291;SDS011;22327;51.208;6.418;2022-10-31T08:20:54;13.50;;;7.47;;
36291;SDS011;22327;51.208;6.418;2022-10-31T08:23:20;12.95;;;8.05;;
36291;SDS011;22327;51.208;6.418;2022-10-31T08:25:45;13.20;;;8.07;;
36291;SDS011;22327;51.208;6.418;2022-10-31T08:28:12;13.00;;;7.15;;
36291;SDS011;22327;51.208;6.418;2022-10-31T08:30:39;12.93;;;7.55;;
36291;SDS011;22327;51.208;6.418;2022-10-31T08:33:06;13.02;;;8.27;;
36291;SDS011;22327;51.208;6.418;2022-10-31T08:35:38;14.40;;;8.77;;
36291;SDS011;22327;51.208;6.418;2022-10-31T08:38:04;14.50;;;8.10;;
36291;SDS011;22327;51.208;6.418;2022-10-31T08:40:30;12.23;;;8.27;;
36291;SDS011;22327;51.208;6.418;2022-10-31T08:43:15;12.20;;;7.80;;
36291;SDS011;22327;51.208;6.418;2022-10-31T08:45:42;12.18;;;7.78;;
36291;SDS011;22327;51.208;6.418;2022-10-31T08:48:10;16.27;;;8.90;;
36291;SDS011;22327;51.208;6.418;2022-10-31T08:50:37;10.73;;;7.85;;
36291;SDS011;22327;51.208;6.418;2022-10-31T08:53:04;12.10;;;7.70;;
36291;SDS011;22327;51.208;6.418;2022-10-31T08:55:40;10.10;;;7.55;;
36291;SDS011;22327;51.208;6.418;2022-10-31T08:58:09;12.77;;;7.80;;
36291;SDS011;22327;51.208;6.418;2022-10-31T09:00:36;11.95;;;8.13;;
36291;SDS011;22327;51.208;6.418;2022-10-31T09:03:03;14.98;;;8.68;;
36291;SDS011;22327;51.208;6.418;2022-10-31T09:05:31;16.15;;;8.40;;
36291;SDS011;22327;51.208;6.418;2022-10-31T09:07:57;15.65;;;8.00;;
36291;SDS011;22327;51.208;6.418;2022-10-31T09:10:25;12.52;;;7.75;;
36291;SDS011;22327;51.208;6.418;2022-10-31T09:12:57;11.55;;;7.68;;
36291;SDS011;22327;51.208;6.418;2022-10-31T09:15:24;16.48;;;8.02;;
36291;SDS011;22327;51.208;6.418;2022-10-31T09:17:51;13.77;;;7.88;;
36291;SDS011;22327;51.208;6.418;2022-10-31T09:20:16;12.60;;;8.10;;
36291;SDS011;22327;51.208;6.418;2022-10-31T09:22:42;14.57;;;7.85;;
36291;SDS011;22327;51.208;6.418;2022-10-31T09:25:07;12.82;;;7.40;;
36291;SDS011;22327;51.208;6.418;2022-10-31T09:27:33;15.90;;;8.20;;
36291;SDS011;22327;51.208;6.418;2022-10-31T09:29:59;10.68;;;6.68;;
36291;SDS011;22327;51.208;6.418;2022-10-31T09:32:24;10.52;;;7.00;;
36291;SDS011;22327;51.208;6.418;2022-10-31T09:34:50;10.15;;;6.30;;
36291;SDS011;22327;51.208;6.418;2022-10-31T09:37:15;13.65;;;6.40;;
36291;SDS011;22327;51.208;6.418;2022-10-31T09:39:41;11.68;;;6.47;;
36291;SDS011;22327;51.208;6.418;2022-10-31T09:52:43;10.77;;;6.78;;
36291;SDS011;22327;51.208;6.418;2022-10-31T09:55:17;12.65;;;6.60;;
36291;SDS011;22327;51.208;6.418;2022-10-31T09:57:46;14.07;;;7.05;;
36291;SDS011;22327;51.208;6.418;2022-10-31T10:00:17;11.88;;;6.35;;
36291;SDS011;22327;51.208;6.418;2022-10-31T10:02:46;12.27;;;6.75;;
36291;SDS011;22327;51.208;6.418;2022-10-31T10:05:46;11.98;;;6.53;;
36291;SDS011;22327;51.208;6.418;2022-10-31T10:08:20;9.88;;;7.28;;
36291;SDS011;22327;51.208;6.418;2022-10-31T10:10:54;11.73;;;7.10;;
36291;SDS011;22327;51.208;6.418;2022-10-31T10:21:39;11.75;;;6.57;;
36291;SDS011;22327;51.208;6.418;2022-10-31T10:24:24;11.45;;;7.10;;
36291;SDS011;22327;51.208;6.418;2022-10-31T10:32:45;8.00;;;5.80;;
36291;SDS011;22327;51.208;6.418;2022-10-31T10:35:19;12.45;;;6.65;;
36291;SDS011;22327;51.208;6.418;2022-10-31T10:37:52;12.85;;;6.25;;
36291;SDS011;22327;51.208;6.418;2022-10-31T10:40:24;8.75;;;5.55;;
36291;SDS011;22327;51.208;6.418;2022-10-31T10:43:11;11.52;;;7.35;;
36291;SDS011;22327;51.208;6.418;2022-10-31T10:45:50;14.90;;;6.82;;
36291;SDS011;22327;51.208;6.418;2022-10-31T10:48:51;11.00;;;6.05;;
36291;SDS011;22327;51.208;6.418;2022-10-31T10:51:37;11.43;;;6.50;;
36291;SDS011;22327;51.208;6.418;2022-10-31T10:54:13;9.32;;;6.32;;
36291;SDS011;22327;51.208;6.418;2022-10-31T10:59:27;9.35;;;5.85;;
36291;SDS011;22327;51.208;6.418;2022-10-31T11:01:55;11.13;;;5.72;;
36291;SDS011;22327;51.208;6.418;2022-10-31T11:04:25;11.05;;;5.75;;
36291;SDS011;22327;51.208;6.418;2022-10-31T11:09:23;10.98;;;5.57;;
36291;SDS011;22327;51.208;6.418;2022-10-31T11:11:49;14.35;;;6.10;;
36291;SDS011;22327;51.208;6.418;2022-10-31T11:14:15;11.32;;;5.55;;
36291;SDS011;22327;51.208;6.418;2022-10-31T11:16:42;8.75;;;6.10;;
36291;SDS011;22327;51.208;6.418;2022-10-31T11:21:40;7.85;;;5.30;;
36291;SDS011;22327;51.208;6.418;2022-10-31T11:26:34;13.88;;;6.20;;
36291;SDS011;22327;51.208;6.418;2022-10-31T11:29:00;9.82;;;5.68;;
36291;SDS011;22327;51.208;6.418;2022-10-31T11:31:28;12.70;;;6.50;;
36291;SDS011;22327;51.208;6.418;2022-10-31T11:33:58;10.23;;;5.65;;
36291;SDS011;22327;51.208;6.418;2022-10-31T11:36:27;8.25;;;5.05;;
36291;SDS011;22327;51.208;6.418;2022-10-31T11:38:55;14.65;;;5.70;;
36291;SDS011;22327;51.208;6.418;2022-10-31T11:43:58;9.93;;;6.00;;
36291;SDS011;22327;51.208;6.418;2022-10-31T11:46:32;13.25;;;6.35;;
36291;SDS011;22327;51.208;6.418;2022-10-31T11:49:00;12.73;;;6.10;;
36291;SDS011;22327;51.208;6.418;2022-10-31T11:51:31;10.02;;;5.60;;
36291;SDS011;22327;51.208;6.418;2022-10-31T11:53:59;12.35;;;5.50;;
36291;SDS011;22327;51.208;6.418;2022-10-31T11:56:27;13.57;;;6.00;;
36291;SDS011;22327;51.208;6.418;2022-10-31T11:59:05;10.07;;;5.60;;
36291;SDS011;22327;51.208;6.418;2022-10-31T12:01:46;7.53;;;5.05;;
36291;SDS011;22327;51.208;6.418;2022-10-31T12:04:13;9.30;;;5.65;;
36291;SDS011;22327;51.208;6.418;2022-10-31T12:06:43;13.07;;;6.05;;
36291;SDS011;22327;51.208;6.418;2022-10-31T12:17:21;12.07;;;5.85;;
36291;SDS011;22327;51.208;6.418;2022-10-31T12:20:03;8.85;;;5.22;;
36291;SDS011;22327;51.208;6.418;2022-10-31T12:30:40;9.77;;;5.38;;
36291;SDS011;22327;51.208;6.418;2022-10-31T12:41:14;7.18;;;5.00;;
36291;SDS011;22327;51.208;6.418;2022-10-31T12:43:52;9.27;;;4.30;;
36291;SDS011;22327;51.208;6.418;2022-10-31T12:52:20;11.40;;;5.45;;
36291;SDS011;22327;51.208;6.418;2022-10-31T12:55:10;6.85;;;4.20;;
36291;SDS011;22327;51.208;6.418;2022-10-31T12:57:40;8.02;;;3.88;;
36291;SDS011;22327;51.208;6.418;2022-10-31T13:02:51;7.07;;;3.83;;
36291;SDS011;22327;51.208;6.418;2022-10-31T13:10:47;6.32;;;3.85;;
36291;SDS011;22327;51.208;6.418;2022-10-31T13:15:58;8.27;;;3.88;;
36291;SDS011;22327;51.208;6.418;2022-10-31T13:18:43;10.18;;;4.15;;
36291;SDS011;22327;51.208;6.418;2022-10-31T13:24:02;8.27;;;4.00;;
36291;SDS011;22327;51.208;6.418;2022-10-31T13:26:37;7.97;;;3.60;;
36291;SDS011;22327;51.208;6.418;2022-10-31T13:29:20;8.88;;;3.70;;
36291;SDS011;22327;51.208;6.418;2022-10-31T13:31:53;7.82;;;3.85;;
36291;SDS011;22327;51.208;6.418;2022-10-31T13:34:22;8.07;;;4.18;;
36291;SDS011;22327;51.208;6.418;2022-10-31T13:36:56;8.82;;;3.50;;
36291;SDS011;22327;51.208;6.418;2022-10-31T13:44:29;8.15;;;3.70;;
36291;SDS011;22327;51.208;6.418;2022-10-31T13:46:56;7.53;;;3.35;;
36291;SDS011;22327;51.208;6.418;2022-10-31T13:54:40;8.32;;;3.78;;
36291;SDS011;22327;51.208;6.418;2022-10-31T13:57:16;10.00;;;3.42;;
36291;SDS011;22327;51.208;6.418;2022-10-31T14:02:46;10.60;;;4.25;;
36291;SDS011;22327;51.208;6.418;2022-10-31T14:05:19;9.20;;;4.13;;
36291;SDS011;22327;51.208;6.418;2022-10-31T14:07:51;8.40;;;3.47;;
36291;SDS011;22327;51.208;6.418;2022-10-31T14:10:28;6.00;;;3.60;;
36291;SDS011;22327;51.208;6.418;2022-10-31T14:13:13;9.70;;;3.42;;
36291;SDS011;22327;51.208;6.418;2022-10-31T14:15:52;7.55;;;3.22;;
36291;SDS011;22327;51.208;6.418;2022-10-31T14:18:33;7.47;;;3.55;;
36291;SDS011;22327;51.208;6.418;2022-10-31T14:21:12;11.07;;;3.60;;
36291;SDS011;22327;51.208;6.418;2022-10-31T14:23:58;7.70;;;3.70;;
36291;SDS011;22327;51.208;6.418;2022-10-31T14:31:43;6.75;;;3.55;;
36291;SDS011;22327;51.208;6.418;2022-10-31T14:34:32;7.72;;;3.55;;
36291;SDS011;22327;51.208;6.418;2022-10-31T14:39:50;6.28;;;3.55;;
36291;SDS011;22327;51.208;6.418;2022-10-31T14:47:56;9.25;;;4.07;;
36291;SDS011;22327;51.208;6.418;2022-10-31T14:50:35;4.82;;;3.25;;
36291;SDS011;22327;51.208;6.418;2022-10-31T14:53:23;6.18;;;3.38;;
36291;SDS011;22327;51.208;6.418;2022-10-31T14:55:55;9.50;;;3.13;;
36291;SDS011;22327;51.208;6.418;2022-10-31T14:58:27;11.32;;;3.65;;
36291;SDS011;22327;51.208;6.418;2022-10-31T15:00:57;9.50;;;3.08;;
36291;SDS011;22327;51.208;6.418;2022-10-31T15:03:24;10.40;;;3.15;;
36291;SDS011;22327;51.208;6.418;2022-10-31T15:06:11;8.68;;;3.03;;
36291;SDS011;22327;51.208;6.418;2022-10-31T15:08:48;7.93;;;3.42;;
36291;SDS011;22327;51.208;6.418;2022-10-31T15:11:23;7.40;;;3.00;;
36291;SDS011;22327;51.208;6.418;2022-10-31T15:13:51;5.22;;;3.13;;
36291;SDS011;22327;51.208;6.418;2022-10-31T15:16:22;4.85;;;3.10;;
36291;SDS011;22327;51.208;6.418;2022-10-31T15:18:57;6.60;;;3.58;;
36291;SDS011;22327;51.208;6.418;2022-10-31T15:21:35;10.88;;;3.25;;
36291;SDS011;22327;51.208;6.418;2022-10-31T15:24:09;6.75;;;2.90;;
36291;SDS011;22327;51.208;6.418;2022-10-31T15:26:40;11.02;;;3.75;;
36291;SDS011;22327;51.208;6.418;2022-10-31T15:29:11;8.38;;;3.03;;
36291;SDS011;22327;51.208;6.418;2022-10-31T15:31:38;5.80;;;3.13;;
36291;SDS011;22327;51.208;6.418;2022-10-31T15:34:16;7.30;;;3.28;;
36291;SDS011;22327;51.208;6.418;2022-10-31T15:36:50;10.00;;;4.00;;
36291;SDS011;22327;51.208;6.418;2022-10-31T15:39:16;10.05;;;3.45;;
36291;SDS011;22327;51.208;6.418;2022-10-31T15:41:47;7.97;;;3.20;;
36291;SDS011;22327;51.208;6.418;2022-10-31T15:44:19;7.07;;;3.25;;
36291;SDS011;22327;51.208;6.418;2022-10-31T15:47:05;6.38;;;3.35;;
36291;SDS011;22327;51.208;6.418;2022-10-31T15:49:41;6.75;;;3.20;;
36291;SDS011;22327;51.208;6.418;2022-10-31T15:52:17;6.60;;;3.00;;
36291;SDS011;22327;51.208;6.418;2022-10-31T15:54:58;7.38;;;3.35;;
36291;SDS011;22327;51.208;6.418;2022-10-31T15:59:55;7.88;;;3.13;;
36291;SDS011;22327;51.208;6.418;2022-10-31T16:02:22;5.50;;;3.30;;
36291;SDS011;22327;51.208;6.418;2022-10-31T16:04:54;6.10;;;2.72;;
36291;SDS011;22327;51.208;6.418;2022-10-31T16:07:20;8.45;;;3.42;;
36291;SDS011;22327;51.208;6.418;2022-10-31T16:09:53;9.27;;;3.05;;
36291;SDS011;22327;51.208;6.418;2022-10-31T16:12:21;9.23;;;3.10;;
36291;SDS011;22327;51.208;6.418;2022-10-31T16:14:48;9.48;;;3.40;;
36291;SDS011;22327;51.208;6.418;2022-10-31T16:17:17;6.10;;;3.60;;
36291;SDS011;22327;51.208;6.418;2022-10-31T16:19:48;8.95;;;3.45;;
36291;SDS011;22327;51.208;6.418;2022-10-31T16:22:25;9.23;;;3.20;;
36291;SDS011;22327;51.208;6.418;2022-10-31T16:27:48;8.70;;;3.40;;
36291;SDS011;22327;51.208;6.418;2022-10-31T16:33:04;8.18;;;3.22;;
36291;SDS011;22327;51.208;6.418;2022-10-31T16:35:45;8.00;;;4.03;;
36291;SDS011;22327;51.208;6.418;2022-10-31T16:38:10;7.97;;;3.60;;
36291;SDS011;22327;51.208;6.418;2022-10-31T16:40:37;6.28;;;3.78;;
36291;SDS011;22327;51.208;6.418;2022-10-31T16:43:03;9.35;;;3.75;;
36291;SDS011;22327;51.208;6.418;2022-10-31T16:45:30;7.13;;;3.53;;
36291;SDS011;22327;51.208;6.418;2022-10-31T16:48:02;6.75;;;3.08;;
36291;SDS011;22327;51.208;6.418;2022-10-31T16:50:34;10.88;;;4.15;;
36291;SDS011;22327;51.208;6.418;2022-10-31T16:53:02;6.93;;;3.25;;
36291;SDS011;22327;51.208;6.418;2022-10-31T16:55:27;7.57;;;3.03;;
36291;SDS011;22327;51.208;6.418;2022-10-31T16:57:54;6.95;;;3.40;;
36291;SDS011;22327;51.208;6.418;2022-10-31T17:00:22;6.78;;;3.10;;
36291;SDS011;22327;51.208;6.418;2022-10-31T17:02:50;7.80;;;3.45;;
36291;SDS011;22327;51.208;6.418;2022-10-31T17:05:17;6.00;;;3.30;;
36291;SDS011;22327;51.208;6.418;2022-10-31T17:07:44;9.45;;;3.33;;
36291;SDS011;22327;51.208;6.418;2022-10-31T17:10:11;11.38;;;4.10;;
36291;SDS011;22327;51.208;6.418;2022-10-31T17:12:38;6.50;;;2.92;;
36291;SDS011;22327;51.208;6.418;2022-10-31T17:15:14;6.20;;;3.28;;
36291;SDS011;22327;51.208;6.418;2022-10-31T17:17:50;10.88;;;3.85;;
36291;SDS011;22327;51.208;6.418;2022-10-31T17:20:20;7.07;;;4.05;;